Time;durP1;ratioP1;P1;durP2;ratioP2;P2;SDS_P1;SDS_P2;PMS_P1;PMS_P2;Temp;Humidity;BMP_temperature;BMP_pressure;BME280_temperature;BME280_humidity;BME280_pressure;Samples;Min_cycle;Max_cycle;Signal;HPM_P1;HPM_P2
2023/09/21 00:02:13;;;;;;;8.33;1.00;;;;;;;19.63;72.39;98999.44;5031581;28;20029;-85
2023/09/21 00:04:39;;;;;;;5.50;0.98;;;;;;;19.62;72.05;98995.03;5049600;28;20029;-84
2023/09/21 00:07:05;;;;;;;7.23;1.30;;;;;;;19.60;72.08;98988.06;5049690;28;20033;-81
2023/09/21 00:09:32;;;;;;;9.13;1.47;;;;;;;19.59;72.50;98989.91;5031580;28;20412;-80
2023/09/21 00:11:57;;;;;;;8.85;1.42;;;;;;;19.56;72.69;98981.22;5051967;28;20389;-82
2023/09/21 00:14:23;;;;;;;7.70;1.33;;;;;;;19.56;72.60;98984.75;5049480;28;20043;-78
2023/09/21 00:16:48;;;;;;;6.27;1.20;;;;;;;19.56;72.20;98983.88;5051285;28;20029;-79
2023/09/21 00:19:14;;;;;;;7.43;1.50;;;;;;;19.50;72.79;98980.63;5069431;28;20020;-80
2023/09/21 00:21:39;;;;;;;8.73;1.30;;;;;;;19.51;72.66;98977.00;5069395;28;20075;-83
2023/09/21 00:24:05;;;;;;;10.57;1.43;;;;;;;19.47;73.01;98980.84;5069273;28;20384;-82
2023/09/21 00:26:31;;;;;;;9.32;1.02;;;;;;;19.46;73.09;98979.13;5058227;28;20777;-80
2023/09/21 00:28:56;;;;;;;6.93;1.40;;;;;;;19.49;72.77;98968.25;5049501;28;20029;-80
2023/09/21 00:31:22;;;;;;;11.10;1.42;;;;;;;19.49;72.96;98965.56;5049220;28;20128;-86
2023/09/21 00:33:47;;;;;;;7.93;1.40;;;;;;;19.43;73.39;98957.97;5049112;28;20033;-79
2023/09/21 00:36:13;;;;;;;9.33;1.37;;;;;;;19.42;73.62;98955.38;5052819;28;20075;-79
2023/09/21 00:38:38;;;;;;;6.65;1.10;;;;;;;19.44;73.22;98964.13;5069189;28;20024;-79
2023/09/21 00:41:04;;;;;;;5.83;1.63;;;;;;;19.41;73.84;98965.19;5069166;28;20040;-79
2023/09/21 00:43:30;;;;;;;6.68;1.38;;;;;;;19.41;73.23;98957.19;5069125;28;20211;-80
2023/09/21 00:46:03;;;;;;;6.63;1.47;;;;;;;19.39;73.52;98950.22;5069496;28;20029;-79
2023/09/21 00:48:41;;;;;;;9.05;1.38;;;;;;;19.39;73.34;98951.06;5069116;28;20383;-80
2023/09/21 00:51:09;;;;;;;8.40;1.35;;;;;;;19.40;73.39;98939.44;5069266;28;20676;-80
2023/09/21 00:53:36;;;;;;;8.10;1.30;;;;;;;19.40;73.74;98933.25;5068891;28;20020;-79
2023/09/21 00:56:09;;;;;;;5.93;1.20;;;;;;;19.35;73.88;98930.84;5062021;28;20568;-79
2023/09/21 00:58:36;;;;;;;8.48;1.85;;;;;;;19.35;73.71;98923.72;5049128;28;20028;-83
2023/09/21 01:01:05;;;;;;;5.55;1.30;;;;;;;19.35;73.89;98921.06;5049125;28;20036;-79
2023/09/21 01:03:31;;;;;;;6.03;1.20;;;;;;;19.28;74.15;98922.38;5048933;28;20029;-79
2023/09/21 01:05:59;;;;;;;8.93;1.90;;;;;;;19.26;74.25;98907.41;5049064;28;20045;-78
2023/09/21 01:08:34;;;;;;;8.63;1.40;;;;;;;19.27;74.68;98906.47;5051532;28;20392;-79
2023/09/21 01:11:08;;;;;;;6.43;1.10;;;;;;;19.25;74.52;98901.22;5048871;28;20098;-80
2023/09/21 01:13:35;;;;;;;7.75;1.35;;;;;;;19.24;74.81;98894.16;5048793;28;20116;-78
2023/09/21 01:16:04;;;;;;;7.00;1.30;;;;;;;19.25;74.96;98889.69;5061661;28;20024;-84
2023/09/21 01:18:31;;;;;;;5.75;1.30;;;;;;;19.23;74.59;98881.78;5052308;28;20083;-79
2023/09/21 01:21:00;;;;;;;8.23;1.47;;;;;;;19.22;74.89;98883.59;5048826;28;20413;-79
2023/09/21 01:23:45;;;;;;;6.85;1.55;;;;;;;19.22;75.11;98878.25;5048549;28;20036;-85
2023/09/21 01:26:11;;;;;;;10.38;1.40;;;;;;;19.25;74.86;98879.03;5048474;28;20075;-79
2023/09/21 01:28:37;;;;;;;7.57;1.40;;;;;;;19.23;75.17;98871.09;5048908;28;20036;-80
2023/09/21 01:31:03;;;;;;;9.90;1.53;;;;;;;19.22;74.95;98864.91;5048292;28;20071;-83
2023/09/21 01:33:28;;;;;;;8.13;1.40;;;;;;;19.22;75.26;98854.25;5048247;28;20025;-79
2023/09/21 01:35:54;;;;;;;6.60;1.40;;;;;;;19.28;74.69;98854.81;5050157;28;20025;-79
2023/09/21 01:38:25;;;;;;;7.60;1.40;;;;;;;19.25;75.29;98852.34;5072567;28;20034;-80
2023/09/21 01:40:54;;;;;;;7.32;1.20;;;;;;;19.28;74.76;98846.78;5072327;28;20028;-80
2023/09/21 01:43:19;;;;;;;9.07;1.58;;;;;;;19.28;74.75;98838.78;5072047;28;20559;-79
2023/09/21 01:45:49;;;;;;;6.22;1.30;;;;;;;19.30;75.00;98840.41;5072013;28;20111;-78
2023/09/21 01:48:20;;;;;;;7.33;1.23;;;;;;;19.28;74.83;98844.13;5071778;28;20029;-80
2023/09/21 01:50:47;;;;;;;5.43;1.52;;;;;;;19.22;75.49;98832.91;5071945;28;20027;-79
2023/09/21 01:53:20;;;;;;;6.22;1.30;;;;;;;19.22;75.44;98824.88;5071987;28;20024;-81
2023/09/21 01:55:47;;;;;;;6.20;1.13;;;;;;;19.24;75.47;98818.59;5067623;28;20021;-81
2023/09/21 01:58:14;;;;;;;9.70;1.90;;;;;;;19.16;75.94;98809.25;5052009;28;20032;-84
2023/09/21 02:00:41;;;;;;;7.13;1.13;;;;;;;19.16;76.18;98811.91;5052213;28;20434;-79
2023/09/21 02:03:09;;;;;;;7.47;1.42;;;;;;;19.19;76.00;98809.06;5053528;28;20025;-79
2023/09/21 02:05:35;;;;;;;4.97;1.30;;;;;;;19.22;75.42;98803.53;5052189;28;20035;-85
2023/09/21 02:08:04;;;;;;;6.53;1.00;;;;;;;19.25;75.13;98805.13;5051819;28;20024;-81
2023/09/21 02:10:30;;;;;;;8.60;1.63;;;;;;;19.27;75.48;98799.72;5051830;28;20056;-80
2023/09/21 02:12:57;;;;;;;5.07;0.97;;;;;;;19.26;75.17;98803.34;5070130;28;20353;-81
2023/09/21 02:15:24;;;;;;;7.80;1.23;;;;;;;19.27;75.42;98797.03;5071750;28;20077;-79
2023/09/21 02:17:51;;;;;;;5.78;1.00;;;;;;;19.27;75.33;98807.72;5060694;28;20200;-79
2023/09/21 02:20:18;;;;;;;7.88;1.17;;;;;;;19.28;75.19;98799.59;5051792;28;20035;-82
2023/09/21 02:22:48;;;;;;;6.65;1.20;;;;;;;19.27;75.66;98813.06;5051922;28;20029;-79
2023/09/21 02:25:14;;;;;;;6.53;0.93;;;;;;;19.24;75.78;98808.75;5051443;28;20025;-80
2023/09/21 02:27:41;;;;;;;6.10;1.20;;;;;;;19.22;76.23;98805.34;5051347;28;20528;-80
2023/09/21 02:30:16;;;;;;;7.78;1.13;;;;;;;19.21;75.92;98788.47;5051653;28;20504;-80
2023/09/21 02:32:42;;;;;;;5.15;1.30;;;;;;;19.24;75.29;98775.91;5051509;28;20124;-79
2023/09/21 02:35:16;;;;;;;5.57;0.90;;;;;;;19.27;75.19;98778.38;5033358;28;20048;-80
2023/09/21 02:37:43;;;;;;;5.70;1.20;;;;;;;19.30;75.13;98770.16;5066813;28;20077;-85
2023/09/21 02:40:10;;;;;;;6.40;1.30;;;;;;;19.29;75.01;98776.44;5071133;28;20353;-82
2023/09/21 02:42:36;;;;;;;6.18;1.20;;;;;;;19.29;75.01;98757.78;5071468;28;20033;-79
2023/09/21 02:45:04;;;;;;;6.77;1.03;;;;;;;19.26;75.44;98755.31;5070992;28;20349;-79
2023/09/21 02:47:30;;;;;;;6.85;1.13;;;;;;;19.23;75.12;98743.00;5070061;28;20020;-85
2023/09/21 02:49:55;;;;;;;8.35;1.17;;;;;;;19.24;75.23;98744.72;5071184;28;20416;-79
2023/09/21 02:52:21;;;;;;;5.50;1.10;;;;;;;19.22;75.04;98744.81;5070922;28;20461;-79
2023/09/21 02:54:47;;;;;;;7.03;1.20;;;;;;;19.20;75.27;98740.53;5070819;28;20761;-79
2023/09/21 02:57:12;;;;;;;7.72;1.17;;;;;;;19.19;75.44;98734.34;5054252;28;20044;-86
2023/09/21 02:59:38;;;;;;;7.33;1.37;;;;;;;19.21;75.29;98721.78;5053335;28;20032;-84
2023/09/21 03:02:03;;;;;;;5.47;1.40;;;;;;;19.17;75.80;98709.59;5050554;28;20021;-79
2023/09/21 03:04:31;;;;;;;6.18;1.10;;;;;;;19.15;75.91;98710.63;5050504;28;20025;-78
2023/09/21 03:06:59;;;;;;;7.15;1.20;;;;;;;19.16;75.41;98723.84;5050787;28;20199;-78
2023/09/21 03:09:25;;;;;;;5.27;1.30;;;;;;;19.13;76.00;98720.53;5050440;28;20021;-79
2023/09/21 03:11:50;;;;;;;9.55;1.50;;;;;;;19.15;75.96;98719.47;5050637;28;20500;-78
2023/09/21 03:14:15;;;;;;;6.03;1.50;;;;;;;19.13;76.17;98709.88;5050920;28;20053;-86
2023/09/21 03:16:43;;;;;;;7.17;1.30;;;;;;;19.13;75.96;98710.72;5051533;28;20072;-79
2023/09/21 03:19:09;;;;;;;7.65;1.30;;;;;;;19.12;75.81;98719.69;5070178;28;20020;-79
2023/09/21 03:21:35;;;;;;;10.07;1.43;;;;;;;19.14;75.82;98717.75;5070585;28;20074;-79
2023/09/21 03:24:01;;;;;;;5.20;1.30;;;;;;;19.10;76.39;98700.25;5069944;28;20516;-78
2023/09/21 03:26:26;;;;;;;6.73;1.37;;;;;;;19.12;76.32;98692.16;5059727;28;20114;-78
2023/09/21 03:28:52;;;;;;;7.43;1.48;;;;;;;19.10;75.96;98689.56;5050531;28;20457;-79
2023/09/21 03:31:18;;;;;;;7.80;1.43;;;;;;;19.14;75.81;98685.75;5050098;28;20033;-79
2023/09/21 03:33:46;;;;;;;8.90;1.45;;;;;;;19.13;76.28;98684.03;5049871;28;20029;-78
2023/09/21 03:36:13;;;;;;;8.27;1.37;;;;;;;19.16;76.15;98683.84;5052798;28;20056;-78
2023/09/21 03:38:39;;;;;;;9.60;1.92;;;;;;;19.15;76.03;98679.44;5050046;28;20079;-80
2023/09/21 03:41:05;;;;;;;10.65;1.45;;;;;;;19.15;76.11;98668.78;5049801;28;20025;-85
2023/09/21 03:43:30;;;;;;;7.03;1.20;;;;;;;19.14;76.00;98658.22;5049779;28;20021;-79
2023/09/21 03:45:56;;;;;;;6.60;1.20;;;;;;;19.13;76.37;98656.50;5050032;28;20021;-86
2023/09/21 03:48:21;;;;;;;8.87;1.40;;;;;;;19.15;76.21;98658.09;5049809;28;20039;-80
2023/09/21 03:50:49;;;;;;;7.93;1.30;;;;;;;19.16;76.07;98646.47;5049893;28;20033;-79
2023/09/21 03:53:14;;;;;;;7.30;1.60;;;;;;;19.13;76.39;98646.69;5049777;28;20048;-79
2023/09/21 03:55:41;;;;;;;7.47;1.30;;;;;;;19.09;76.70;98650.50;5053171;28;20480;-78
2023/09/21 03:58:07;;;;;;;8.20;1.50;;;;;;;19.10;77.08;98659.38;5049757;28;20498;-83
2023/09/21 04:03:00;;;;;;;6.00;1.50;;;;;;;19.17;76.48;98645.53;5049693;28;20029;-79
2023/09/21 04:05:28;;;;;;;7.60;1.40;;;;;;;19.16;76.61;98649.16;5068296;28;20036;-78
2023/09/21 04:07:54;;;;;;;7.57;1.33;;;;;;;19.16;76.49;98641.13;5070000;28;20024;-78
2023/09/21 04:10:20;;;;;;;10.70;1.40;;;;;;;19.13;76.50;98632.50;5069761;28;20016;-84
2023/09/21 04:12:47;;;;;;;8.65;1.50;;;;;;;19.13;76.29;98627.16;5069828;28;20253;-78
2023/09/21 04:15:13;;;;;;;8.07;1.35;;;;;;;19.15;76.72;98623.41;5069999;28;20051;-78
2023/09/21 04:17:39;;;;;;;9.87;1.47;;;;;;;19.13;76.46;98625.34;5060008;28;20028;-79
2023/09/21 04:20:14;;;;;;;7.88;1.60;;;;;;;19.12;76.43;98630.78;5049425;28;20060;-79
2023/09/21 04:22:41;;;;;;;6.82;1.50;;;;;;;19.13;76.47;98614.66;5049843;28;20087;-79
2023/09/21 04:25:09;;;;;;;6.85;1.45;;;;;;;19.13;76.59;98621.81;5049773;28;20021;-79
2023/09/21 04:27:39;;;;;;;8.13;1.60;;;;;;;19.15;76.50;98617.25;5049386;28;20041;-82
2023/09/21 04:30:09;;;;;;;7.95;1.60;;;;;;;19.13;76.64;98620.00;5049490;28;20033;-80
2023/09/21 04:32:38;;;;;;;6.70;1.55;;;;;;;19.15;76.38;98622.56;5049106;28;20045;-81
2023/09/21 04:35:05;;;;;;;8.88;1.85;;;;;;;19.10;77.14;98630.03;5049350;28;20159;-81
2023/09/21 04:37:34;;;;;;;6.97;2.05;;;;;;;19.08;77.21;98622.13;5063267;28;20119;-84
2023/09/21 04:40:06;;;;;;;9.03;2.40;;;;;;;19.10;77.30;98625.53;5069241;28;20052;-79
2023/09/21 04:42:35;;;;;;;7.47;1.90;;;;;;;19.10;77.09;98614.88;5069200;28;20064;-84
2023/09/21 04:45:01;;;;;;;8.98;1.95;;;;;;;19.14;76.74;98608.38;5069612;28;20426;-78
2023/09/21 04:47:30;;;;;;;7.72;1.77;;;;;;;19.15;76.54;98607.41;5051179;28;20357;-79
2023/09/21 04:49:55;;;;;;;6.97;2.38;;;;;;;19.14;77.03;98605.69;5069225;28;20476;-80
2023/09/21 04:52:22;;;;;;;9.67;2.03;;;;;;;19.16;76.74;98597.59;5047030;28;20074;-84
2023/09/21 04:54:51;;;;;;;7.22;1.70;;;;;;;19.16;76.97;98593.09;5051935;28;20160;-80
2023/09/21 04:57:20;;;;;;;9.97;1.87;;;;;;;19.15;76.76;98590.56;5054488;28;20039;-83
2023/09/21 04:59:46;;;;;;;9.02;2.00;;;;;;;19.12;76.94;98580.94;5050854;28;20032;-84
2023/09/21 05:02:12;;;;;;;9.15;1.90;;;;;;;19.13;76.56;98581.81;5055305;28;20029;-79
2023/09/21 05:04:38;;;;;;;5.70;1.60;;;;;;;19.16;76.49;98585.09;5058370;28;20029;-79
2023/09/21 05:07:05;;;;;;;6.63;1.50;;;;;;;19.17;76.63;98570.84;5050944;28;20033;-83
2023/09/21 05:09:30;;;;;;;8.57;1.70;;;;;;;19.18;76.42;98571.69;5051166;28;20032;-79
2023/09/21 05:11:56;;;;;;;7.27;1.80;;;;;;;19.17;76.32;98568.16;5071517;28;20504;-79
2023/09/21 05:14:21;;;;;;;7.93;1.73;;;;;;;19.12;76.54;98564.94;5054682;28;20107;-80
2023/09/21 05:16:47;;;;;;;5.40;1.80;;;;;;;19.13;76.79;98576.47;5070361;28;20048;-79
2023/09/21 05:19:13;;;;;;;6.22;1.70;;;;;;;19.11;76.46;98581.91;5052602;28;20047;-80
2023/09/21 05:21:39;;;;;;;7.13;1.60;;;;;;;19.10;76.72;98582.84;5052825;28;20116;-79
2023/09/21 05:24:06;;;;;;;7.32;2.00;;;;;;;19.05;76.79;98588.50;5052501;28;20020;-79
2023/09/21 05:26:32;;;;;;;6.57;1.83;;;;;;;19.14;76.67;98595.03;5052813;28;20033;-77
2023/09/21 05:28:57;;;;;;;6.80;1.60;;;;;;;19.11;76.34;98589.91;5052585;28;20032;-78
2023/09/21 05:31:22;;;;;;;6.83;2.10;;;;;;;19.14;76.31;98591.53;5052075;28;20051;-79
2023/09/21 05:33:48;;;;;;;9.83;1.90;;;;;;;19.13;76.39;98604.00;5052407;28;20400;-80
2023/09/21 05:36:13;;;;;;;9.17;1.97;;;;;;;19.11;76.59;98605.91;5055890;28;20078;-79
2023/09/21 05:38:39;;;;;;;5.87;1.50;;;;;;;19.14;76.51;98600.38;5062467;28;20115;-80
2023/09/21 05:41:06;;;;;;;6.43;1.80;;;;;;;19.17;75.92;98592.19;5052402;28;20032;-79
2023/09/21 05:43:31;;;;;;;4.75;1.55;;;;;;;19.19;76.15;98592.94;5058509;28;20507;-78
2023/09/21 05:45:57;;;;;;;8.53;2.00;;;;;;;19.19;76.24;98594.72;5052904;28;20037;-78
2023/09/21 05:48:22;;;;;;;5.67;1.50;;;;;;;19.18;76.22;98588.56;5054719;28;20022;-78
2023/09/21 05:50:49;;;;;;;8.75;1.60;;;;;;;19.20;76.03;98604.44;5052004;28;20033;-77
2023/09/21 05:53:15;;;;;;;6.82;1.73;;;;;;;19.20;75.92;98599.09;5052625;28;20382;-77
2023/09/21 05:55:43;;;;;;;9.10;1.90;;;;;;;19.19;75.64;98595.59;5054981;28;20081;-78
2023/09/21 05:58:09;;;;;;;7.47;1.50;;;;;;;19.19;75.90;98608.94;5052069;28;20061;-78
2023/09/21 06:00:39;;;;;;;8.02;1.80;;;;;;;19.21;75.68;98606.16;5051701;28;20147;-78
2023/09/21 06:03:05;;;;;;;5.87;1.47;;;;;;;19.21;75.63;98607.03;5050981;28;20473;-78
2023/09/21 06:05:30;;;;;;;6.10;1.80;;;;;;;19.21;76.06;98600.81;5061085;28;20029;-78
2023/09/21 06:07:56;;;;;;;8.20;1.60;;;;;;;19.21;75.90;98601.69;5051831;28;20025;-80
2023/09/21 06:10:22;;;;;;;6.70;1.70;;;;;;;19.22;75.88;98607.88;5051476;28;20067;-79
2023/09/21 06:12:48;;;;;;;5.97;1.87;;;;;;;19.26;75.92;98608.53;5052018;28;20024;-78
2023/09/21 06:15:14;;;;;;;7.68;1.88;;;;;;;19.24;75.55;98603.28;5059492;28;20029;-79
2023/09/21 06:17:40;;;;;;;6.83;1.83;;;;;;;19.24;75.62;98594.44;5053277;28;20067;-79
2023/09/21 06:20:06;;;;;;;7.57;1.60;;;;;;;19.27;75.73;98592.41;5070530;28;20044;-78
2023/09/21 06:22:31;;;;;;;9.02;1.70;;;;;;;19.27;75.41;98583.56;5071035;28;20032;-78
2023/09/21 06:24:57;;;;;;;7.80;1.80;;;;;;;19.25;75.81;98588.97;5071374;28;20025;-78
2023/09/21 06:27:23;;;;;;;8.00;1.50;;;;;;;19.29;75.95;98579.84;5053304;28;20070;-80
2023/09/21 06:29:49;;;;;;;8.67;1.57;;;;;;;19.31;75.52;98579.72;5051417;28;20029;-79
2023/09/21 06:32:15;;;;;;;7.97;1.95;;;;;;;19.34;75.52;98579.50;5051284;28;20104;-78
2023/09/21 06:34:41;;;;;;;6.60;1.77;;;;;;;19.36;75.17;98577.56;5033519;28;20037;-78
2023/09/21 06:37:10;;;;;;;9.20;1.80;;;;;;;19.32;75.84;98565.41;5062207;28;20036;-78
2023/09/21 06:39:35;;;;;;;7.10;1.73;;;;;;;19.35;75.42;98566.06;5069808;28;20477;-78
2023/09/21 06:42:01;;;;;;;9.90;1.85;;;;;;;19.34;75.83;98563.47;5069402;28;20055;-78
2023/09/21 06:44:28;;;;;;;8.27;1.87;;;;;;;19.37;75.36;98565.94;5069443;28;20309;-79
2023/09/21 06:46:54;;;;;;;9.15;1.95;;;;;;;19.39;75.33;98577.38;5049173;28;20504;-79
2023/09/21 06:49:21;;;;;;;5.13;1.60;;;;;;;19.42;75.64;98587.88;5049831;28;20021;-79
2023/09/21 06:51:49;;;;;;;9.68;2.00;;;;;;;19.45;75.52;98582.31;5049971;28;20025;-78
2023/09/21 06:54:17;;;;;;;5.88;1.83;;;;;;;19.43;75.56;98575.34;5050921;28;20439;-78
2023/09/21 06:56:42;;;;;;;9.80;2.10;;;;;;;19.47;75.52;98580.38;5039913;28;20098;-79
2023/09/21 06:59:08;;;;;;;12.00;1.83;;;;;;;19.50;75.34;98573.97;5051018;28;20419;-78
2023/09/21 07:01:34;;;;;;;8.03;1.50;;;;;;;19.51;74.95;98563.19;5053610;28;20028;-79
2023/09/21 07:04:00;;;;;;;7.03;1.60;;;;;;;19.63;74.80;98558.81;5050399;28;20020;-78
2023/09/21 07:06:25;;;;;;;7.53;1.50;;;;;;;19.80;74.86;98548.78;5050655;28;20400;-78
2023/09/21 07:08:52;;;;;;;6.90;1.67;;;;;;;19.92;74.09;98552.44;5050917;28;20021;-78
2023/09/21 07:11:19;;;;;;;7.50;1.40;;;;;;;19.97;73.90;98554.78;5050732;28;20028;-78
2023/09/21 07:13:51;;;;;;;4.37;1.50;;;;;;;20.06;73.58;98549.63;5050673;28;20025;-78
2023/09/21 07:16:18;;;;;;;7.10;1.27;;;;;;;20.21;73.47;98552.19;5050604;28;20035;-78
2023/09/21 07:18:44;;;;;;;7.70;1.40;;;;;;;20.27;73.35;98538.38;5068069;28;20043;-80
2023/09/21 07:21:09;;;;;;;5.85;1.77;;;;;;;20.37;72.73;98542.09;5070549;28;20021;-77
2023/09/21 07:23:35;;;;;;;7.07;2.03;;;;;;;20.43;72.38;98529.25;5070176;28;20025;-78
2023/09/21 07:26:00;;;;;;;7.50;1.80;;;;;;;20.36;72.63;98537.69;5063207;28;20048;-79
2023/09/21 07:28:28;;;;;;;6.47;1.40;;;;;;;20.32;72.83;98533.53;5050397;28;20035;-77
2023/09/21 07:30:54;;;;;;;6.63;1.50;;;;;;;20.28;72.50;98542.75;5050288;28;20045;-78
2023/09/21 07:33:22;;;;;;;7.47;1.70;;;;;;;20.22;72.95;98548.56;5049571;28;20040;-78
2023/09/21 07:35:48;;;;;;;6.57;1.30;;;;;;;20.22;73.21;98549.38;5050485;28;20086;-78
2023/09/21 07:38:14;;;;;;;5.93;1.55;;;;;;;20.30;73.05;98524.78;5050363;28;20373;-78
2023/09/21 07:40:40;;;;;;;6.60;1.67;;;;;;;20.36;72.91;98529.69;5052267;28;20016;-78
2023/09/21 07:43:06;;;;;;;6.78;1.38;;;;;;;20.45;72.49;98530.00;5050252;28;20066;-78
2023/09/21 07:45:32;;;;;;;6.78;1.45;;;;;;;20.57;72.03;98530.91;5050109;28;20115;-78
2023/09/21 07:47:57;;;;;;;5.50;1.50;;;;;;;20.80;71.74;98526.56;5050359;28;20029;-79
2023/09/21 07:50:23;;;;;;;8.43;1.97;;;;;;;21.01;71.10;98534.81;5067913;28;20067;-78
2023/09/21 07:52:49;;;;;;;5.43;1.60;;;;;;;21.22;70.69;98523.44;5051980;28;20056;-78
2023/09/21 07:55:14;;;;;;;6.30;1.40;;;;;;;21.47;70.15;98511.69;5069600;28;20032;-78
2023/09/21 07:57:39;;;;;;;7.63;1.40;;;;;;;21.56;69.67;98506.56;5049793;28;20265;-78
2023/09/21 08:00:09;;;;;;;6.65;1.30;;;;;;;21.69;69.34;98512.72;5049814;28;20081;-80
2023/09/21 08:02:34;;;;;;;8.82;1.20;;;;;;;21.90;69.01;98520.03;5049473;28;20545;-78
2023/09/21 08:05:02;;;;;;;8.53;1.50;;;;;;;22.04;68.58;98525.13;5049925;28;20104;-78
2023/09/21 08:07:27;;;;;;;5.47;1.35;;;;;;;22.05;68.25;98524.16;5049729;28;20025;-78
2023/09/21 08:09:57;;;;;;;7.77;1.40;;;;;;;21.94;68.14;98540.25;5049678;28;20492;-78
2023/09/21 08:12:24;;;;;;;5.57;1.30;;;;;;;21.87;68.42;98536.38;5049637;28;20458;-78
2023/09/21 08:14:49;;;;;;;7.47;1.20;;;;;;;21.80;68.89;98536.81;5049471;28;20031;-78
2023/09/21 08:17:15;;;;;;;5.40;1.40;;;;;;;21.72;68.46;98531.22;5054897;28;20025;-78
2023/09/21 08:19:41;;;;;;;5.50;1.40;;;;;;;21.65;68.27;98532.69;5069560;28;20110;-78
2023/09/21 08:22:06;;;;;;;10.52;1.45;;;;;;;21.60;68.31;98530.31;5069595;28;20020;-79
2023/09/21 08:24:34;;;;;;;8.70;1.30;;;;;;;21.56;68.84;98536.03;5051330;28;20029;-78
2023/09/21 08:27:01;;;;;;;6.60;1.30;;;;;;;21.60;68.86;98534.84;5054609;28;20416;-78
2023/09/21 08:29:26;;;;;;;7.77;1.60;;;;;;;21.73;68.64;98535.59;5049483;28;20117;-78
2023/09/21 08:31:51;;;;;;;7.97;1.48;;;;;;;21.82;68.48;98527.81;5049092;28;20117;-78
2023/09/21 08:34:19;;;;;;;6.37;1.27;;;;;;;21.92;68.20;98523.44;5049382;28;20025;-78
2023/09/21 08:36:44;;;;;;;7.63;1.65;;;;;;;22.06;67.86;98525.91;5049915;28;20032;-78
2023/09/21 08:39:10;;;;;;;7.53;1.40;;;;;;;22.23;67.04;98526.34;5051037;28;20021;-78
2023/09/21 08:41:40;;;;;;;4.85;1.23;;;;;;;22.44;66.77;98522.91;5049277;28;20024;-78
2023/09/21 08:44:07;;;;;;;5.75;1.30;;;;;;;22.67;66.32;98522.88;5049387;28;20043;-78
2023/09/21 08:46:33;;;;;;;4.97;1.50;;;;;;;22.84;65.74;98516.97;5070596;28;20025;-78
2023/09/21 08:49:00;;;;;;;7.03;1.60;;;;;;;23.07;64.79;98509.66;5073552;28;20424;-78
2023/09/21 08:51:26;;;;;;;5.43;1.30;;;;;;;23.16;65.04;98518.78;5073203;28;20462;-79
2023/09/21 08:53:54;;;;;;;4.40;1.47;;;;;;;23.21;64.06;98510.34;5073272;28;20041;-78
2023/09/21 08:56:20;;;;;;;5.93;1.55;;;;;;;23.23;64.05;98506.50;5063807;28;20028;-78
2023/09/21 08:58:47;;;;;;;5.82;1.80;;;;;;;23.29;63.61;98498.97;5053385;28;20098;-78
2023/09/21 09:01:14;;;;;;;4.65;1.33;;;;;;;23.37;62.80;98493.78;5053323;28;20036;-78
2023/09/21 09:03:40;;;;;;;6.57;1.17;;;;;;;23.36;63.13;98500.13;5053128;28;20133;-78
2023/09/21 09:06:06;;;;;;;7.57;1.80;;;;;;;23.46;62.85;98519.84;5054597;28;20025;-79
2023/09/21 09:08:31;;;;;;;5.97;1.50;;;;;;;23.54;63.09;98526.41;5053095;28;20044;-79
2023/09/21 09:10:56;;;;;;;5.93;1.57;;;;;;;23.53;63.15;98530.09;5052807;28;20037;-79
2023/09/21 09:13:32;;;;;;;7.07;1.57;;;;;;;23.70;62.23;98528.63;5052615;28;20063;-78
2023/09/21 09:16:00;;;;;;;7.57;1.50;;;;;;;23.91;61.97;98533.94;5052781;28;20481;-79
2023/09/21 09:18:27;;;;;;;7.65;1.50;;;;;;;24.03;61.59;98543.66;5068162;28;20028;-78
2023/09/21 09:20:54;;;;;;;4.32;1.23;;;;;;;24.11;61.52;98540.28;5054906;28;20055;-79
2023/09/21 09:23:21;;;;;;;7.18;1.52;;;;;;;24.22;61.01;98542.00;5072552;28;20202;-78
2023/09/21 09:25:49;;;;;;;4.93;1.80;;;;;;;24.35;60.14;98537.25;5067414;28;20029;-78
2023/09/21 09:28:15;;;;;;;6.05;1.38;;;;;;;24.43;60.02;98531.19;5052353;28;20020;-78
2023/09/21 09:30:41;;;;;;;7.05;1.48;;;;;;;24.57;59.50;98529.94;5052279;28;20525;-78
2023/09/21 09:33:12;;;;;;;5.67;1.50;;;;;;;24.71;59.70;98536.75;5054057;28;20152;-78
2023/09/21 09:35:41;;;;;;;9.05;1.60;;;;;;;24.85;59.06;98532.00;5034586;28;20028;-78
2023/09/21 09:38:11;;;;;;;10.18;1.50;;;;;;;24.86;58.24;98537.22;5071645;28;20036;-79
2023/09/21 09:40:37;;;;;;;5.88;1.35;;;;;;;25.01;58.91;98547.59;5072364;28;20025;-78
2023/09/21 09:43:05;;;;;;;5.70;1.40;;;;;;;25.22;58.72;98544.75;5072458;28;20032;-79
2023/09/21 09:45:31;;;;;;;9.40;1.40;;;;;;;25.40;58.22;98541.34;5072345;28;20020;-78
2023/09/21 09:48:03;;;;;;;6.95;1.60;;;;;;;25.56;57.17;98544.31;5072072;28;20028;-80
2023/09/21 09:50:33;;;;;;;5.97;1.30;;;;;;;25.65;56.87;98553.34;5072119;28;20416;-80
2023/09/21 09:53:06;;;;;;;7.38;1.60;;;;;;;25.63;56.24;98569.69;5072158;28;20037;-79
2023/09/21 09:55:33;;;;;;;5.25;1.27;;;;;;;25.66;56.82;98576.63;5069250;28;20039;-78
2023/09/21 09:58:03;;;;;;;7.73;1.40;;;;;;;25.76;56.37;98573.91;5051602;28;20025;-79
2023/09/21 10:00:30;;;;;;;5.60;1.55;;;;;;;25.93;55.75;98580.41;5052123;28;20545;-79
2023/09/21 10:02:56;;;;;;;10.05;1.50;;;;;;;26.09;55.68;98591.41;5052063;28;20025;-79
2023/09/21 10:05:27;;;;;;;6.63;1.40;;;;;;;26.23;55.88;98602.75;5051914;28;20468;-79
2023/09/21 10:08:02;;;;;;;4.68;1.38;;;;;;;26.23;54.40;98614.38;5052051;28;20399;-79
2023/09/21 10:10:32;;;;;;;5.97;1.57;;;;;;;26.25;55.39;98619.66;5034111;28;20064;-78
2023/09/21 10:12:58;;;;;;;7.25;1.65;;;;;;;26.35;55.17;98625.84;5051956;28;20166;-79
2023/09/21 10:15:24;;;;;;;6.07;1.50;;;;;;;26.49;54.24;98632.59;5034050;28;20482;-78
2023/09/21 10:17:54;;;;;;;6.20;1.50;;;;;;;26.62;54.78;98624.16;5062071;28;20035;-79
2023/09/21 10:20:27;;;;;;;5.93;1.50;;;;;;;26.72;53.99;98628.66;5071938;28;20150;-79
2023/09/21 10:22:54;;;;;;;7.63;1.50;;;;;;;26.77;53.77;98627.22;5071785;28;20174;-80
2023/09/21 10:25:39;;;;;;;5.88;1.65;;;;;;;26.85;53.96;98610.28;5070057;28;20032;-83
2023/09/21 10:28:27;;;;;;;5.10;1.70;;;;;;;27.03;53.80;98609.44;5051464;28;20517;-79
2023/09/21 10:31:13;;;;;;;6.20;1.58;;;;;;;27.35;53.33;98618.88;5054104;28;20041;-78
2023/09/21 10:34:04;;;;;;;5.13;1.47;;;;;;;27.41;52.83;98620.97;5051307;28;20072;-80
2023/09/21 10:36:31;;;;;;;5.75;1.65;;;;;;;27.62;51.70;98630.66;5056870;28;20021;-78
2023/09/21 10:39:05;;;;;;;8.00;1.25;;;;;;;27.70;51.89;98635.25;5071129;28;20052;-79
2023/09/21 10:41:32;;;;;;;6.80;1.60;;;;;;;27.87;51.72;98638.94;5053241;28;20028;-79
2023/09/21 10:44:00;;;;;;;5.22;1.50;;;;;;;28.01;51.12;98642.94;5070973;28;20052;-80
2023/09/21 10:46:26;;;;;;;6.87;1.70;;;;;;;28.14;50.36;98626.25;5070945;28;20468;-79
2023/09/21 10:49:14;;;;;;;6.50;1.60;;;;;;;28.23;49.77;98628.03;5071073;28;20051;-79
2023/09/21 10:51:39;;;;;;;8.25;2.03;;;;;;;28.43;48.74;98622.38;5071482;28;20543;-80
2023/09/21 10:54:10;;;;;;;6.27;1.60;;;;;;;28.46;48.59;98627.47;5071503;28;20040;-79
2023/09/21 10:56:37;;;;;;;7.18;1.33;;;;;;;28.34;47.80;98635.88;5059433;28;20033;-79
2023/09/21 10:59:03;;;;;;;4.68;1.50;;;;;;;28.20;47.97;98648.13;5050920;28;20392;-79
2023/09/21 11:01:29;;;;;;;6.07;1.50;;;;;;;28.01;47.89;98651.03;5050971;28;20029;-79
2023/09/21 11:03:55;;;;;;;6.73;1.80;;;;;;;27.84;46.83;98660.88;5050564;28;20032;-79
2023/09/21 11:06:21;;;;;;;5.65;1.50;;;;;;;27.61;45.53;98673.03;5033026;28;20025;-79
2023/09/21 11:08:49;;;;;;;6.70;1.80;;;;;;;27.37;45.70;98681.75;5050115;28;20195;-79
2023/09/21 11:11:16;;;;;;;5.72;1.52;;;;;;;27.15;46.62;98688.44;5050715;28;20079;-79
2023/09/21 11:13:42;;;;;;;8.07;1.87;;;;;;;26.93;46.67;98690.53;5050764;28;20033;-78
2023/09/21 11:16:13;;;;;;;8.40;1.80;;;;;;;26.81;47.20;98684.47;5050837;28;20047;-78
2023/09/21 11:18:40;;;;;;;7.20;2.08;;;;;;;26.70;46.61;98690.91;5067647;28;20503;-78
2023/09/21 11:21:08;;;;;;;6.50;1.70;;;;;;;26.58;46.75;98708.31;5070355;28;20024;-79
2023/09/21 11:23:34;;;;;;;6.47;1.83;;;;;;;26.37;46.65;98715.59;5070183;28;20044;-79
2023/09/21 11:26:00;;;;;;;5.30;1.90;;;;;;;26.12;45.47;98726.97;5066163;28;20034;-81
2023/09/21 11:28:26;;;;;;;6.53;2.10;;;;;;;25.89;44.92;98719.19;5050597;28;20079;-78
2023/09/21 11:30:53;;;;;;;6.60;2.00;;;;;;;25.60;44.66;98749.72;5050232;28;20049;-80
2023/09/21 11:33:21;;;;;;;6.07;1.88;;;;;;;25.36;45.32;98745.53;5050797;28;20024;-78
2023/09/21 11:35:47;;;;;;;7.95;2.30;;;;;;;25.17;45.81;98744.50;5069986;28;20040;-78
2023/09/21 11:38:16;;;;;;;14.33;1.90;;;;;;;25.00;46.06;98748.69;5050421;28;20047;-78